Terminal Aerodrome Forecast
Issued by NWS

Home | Current Version | Previous Version | Graphics & Text | Print | Product List | Glossary On
Versions: 1 2 3 4 5 6 7 8 9 10 11 12 13 14 15 16 17 18 19 20 21 22 23 24 25 26 27 28 29 30 31 32 33 34 35
000
FTUS43 KGRB 251421 AAA
TAFRHI
TAF AMD
KRHI 251421Z 2514/2612 12006KT 5SM -SHRA BR BKN004
      TEMPO 2514/2517 3SM -SHRA BR BKN002
     FM251700 13007KT 5SM BR VCSH BKN009
     FM251900 21009G16KT P6SM VCSH OVC015
     FM252200 24012G22KT P6SM VCSH BKN020
     FM260000 23007KT P6SM BKN015 BKN030
     FM260800 20004KT 3SM BR BKN006=

USA.gov is the U.S. government's official web portal to all federal, state and local government web resources and services.